createdAt,value
2016-08-02T00:00:30.688Z,16.43
2016-08-02T00:01:31.352Z,16.43
2016-08-02T00:02:30.629Z,16.56
2016-08-02T00:03:31.291Z,16.63
2016-08-02T00:04:31.259Z,16.58
2016-08-02T00:05:31.226Z,16.56
2016-08-02T00:06:31.210Z,16.53
2016-08-02T00:07:31.164Z,16.49
2016-08-02T00:09:31.104Z,16.52
2016-08-02T00:10:31.069Z,16.53
2016-08-02T00:11:29.642Z,16.46
2016-08-02T00:12:31.019Z,16.46
2016-08-02T00:13:30.283Z,16.41
2016-08-02T00:14:30.949Z,16.39
2016-08-02T00:15:30.912Z,16.33
2016-08-02T00:16:29.496Z,16.34
2016-08-02T00:17:30.848Z,16.3
2016-08-02T00:18:30.818Z,16.28
2016-08-02T00:19:30.090Z,16.25
2016-08-02T00:20:30.757Z,16.21
2016-08-02T00:21:30.723Z,16.25
2016-08-02T00:22:31.746Z,16.21
2016-08-02T00:23:30.665Z,16.24
2016-08-02T00:24:29.939Z,16.04
2016-08-02T00:25:29.207Z,16.09
2016-08-02T00:26:30.563Z,16.08
2016-08-02T00:27:29.842Z,16.05
2016-08-02T00:28:30.505Z,16.04
2016-08-02T00:29:29.777Z,16.01
2016-08-02T00:30:30.447Z,16.01
2016-08-02T00:31:30.405Z,15.92
2016-08-02T00:32:29.688Z,15.86
2016-08-02T00:33:30.350Z,15.87
2016-08-02T00:34:29.622Z,15.76
2016-08-02T00:35:29.593Z,15.76
2016-08-02T00:36:30.258Z,15.72
2016-08-02T00:37:30.222Z,15.64
2016-08-02T00:38:29.491Z,15.71
2016-08-02T00:39:29.462Z,15.74
2016-08-02T00:40:29.430Z,15.65
2016-08-02T00:41:30.093Z,15.65
2016-08-02T00:42:29.368Z,15.6
2016-08-02T00:43:30.028Z,15.65
2016-08-02T00:44:30.002Z,15.56
2016-08-02T00:45:29.966Z,15.68
2016-08-02T00:46:29.938Z,15.62
2016-08-02T00:47:29.204Z,15.54
2016-08-02T00:48:29.870Z,15.49
2016-08-02T00:49:29.142Z,15.54
2016-08-02T00:50:29.112Z,15.54
2016-08-02T00:51:29.774Z,15.46
2016-08-02T00:52:28.357Z,15.49
2016-08-02T00:53:29.716Z,15.49
2016-08-02T00:54:28.289Z,15.44
2016-08-02T00:55:29.646Z,15.46
2016-08-02T00:56:29.618Z,15.39
2016-08-02T00:57:29.586Z,15.49
2016-08-02T00:58:29.553Z,15.47
2016-08-02T00:59:29.522Z,15.47
2016-08-02T01:00:28.796Z,15.44
2016-08-02T01:01:28.766Z,15.43
2016-08-02T01:02:29.427Z,15.53
2016-08-02T01:03:29.390Z,15.51
2016-08-02T01:04:28.665Z,15.57
2016-08-02T01:05:29.329Z,15.57
2016-08-02T01:06:29.295Z,15.59
2016-08-02T01:07:29.272Z,15.56
2016-08-02T01:08:29.239Z,15.57
2016-08-02T01:09:28.505Z,15.67
2016-08-02T01:10:29.166Z,15.64
2016-08-02T01:11:29.131Z,15.6
2016-08-02T01:12:28.413Z,15.67
2016-08-02T01:13:28.376Z,15.64
2016-08-02T01:14:29.037Z,15.74
2016-08-02T01:15:29.009Z,15.71
2016-08-02T01:16:28.280Z,15.72
2016-08-02T01:17:28.945Z,15.75
2016-08-02T01:18:28.213Z,15.76
2016-08-02T01:19:28.182Z,15.8
2016-08-02T01:20:28.846Z,15.74
2016-08-02T01:21:28.132Z,15.72
2016-08-02T01:22:27.391Z,15.8
2016-08-02T01:23:28.756Z,15.71
2016-08-02T01:24:28.719Z,15.75
2016-08-02T01:25:27.300Z,15.75
2016-08-02T01:26:28.658Z,15.78
2016-08-02T01:27:27.231Z,15.74
2016-08-02T01:28:28.604Z,15.74
2016-08-02T01:29:28.560Z,15.78
2016-08-02T01:30:28.537Z,15.72
2016-08-02T01:31:28.497Z,15.76
2016-08-02T01:32:28.467Z,15.82
2016-08-02T01:33:28.438Z,15.84
2016-08-02T01:34:28.410Z,15.86
2016-08-02T01:35:28.369Z,15.87
2016-08-02T01:36:28.340Z,15.92
2016-08-02T01:37:28.309Z,15.89
2016-08-02T01:38:28.276Z,15.94
2016-08-02T01:39:28.244Z,15.93
2016-08-02T01:40:28.226Z,15.92
2016-08-02T01:41:27.484Z,15.92
2016-08-02T01:42:26.757Z,16.04
2016-08-02T01:43:28.123Z,16.05
2016-08-02T01:44:28.086Z,16.09
2016-08-02T01:45:27.355Z,16.09
2016-08-02T01:46:28.027Z,16.14
2016-08-02T01:47:27.987Z,16.15
2016-08-02T01:48:27.957Z,16.14
2016-08-02T01:49:27.230Z,16.17
2016-08-02T01:50:27.203Z,16.25
2016-08-02T01:51:27.865Z,16.27
2016-08-02T01:52:27.144Z,16.23
2016-08-02T01:53:27.103Z,16.23
2016-08-02T01:54:27.079Z,16.28
2016-08-02T01:55:27.739Z,16.24
2016-08-02T01:56:27.701Z,16.3
2016-08-02T01:57:27.672Z,16.3
2016-08-02T01:58:27.639Z,16.34
2016-08-02T01:59:27.611Z,16.3
2016-08-02T02:00:27.580Z,16.31
2016-08-02T02:01:27.551Z,16.38
2016-08-02T02:02:26.817Z,16.34
2016-08-02T02:03:27.483Z,16.31
2016-08-02T02:04:27.453Z,16.3
2016-08-02T02:05:27.420Z,16.34
2016-08-02T02:06:26.694Z,16.35
2016-08-02T02:07:27.357Z,16.35
2016-08-02T02:08:27.330Z,16.33
2016-08-02T02:09:26.598Z,16.28
2016-08-02T02:10:26.566Z,16.39
2016-08-02T02:11:26.538Z,16.38
2016-08-02T02:12:27.210Z,16.34
2016-08-02T02:13:27.163Z,16.34
2016-08-02T02:14:27.133Z,16.38
2016-08-02T02:15:27.099Z,16.46
2016-08-02T02:16:25.679Z,16.46
2016-08-02T02:17:27.038Z,16.34
2016-08-02T02:18:26.312Z,16.34
2016-08-02T02:19:26.976Z,16.25
2016-08-02T02:20:26.947Z,16.31
2016-08-02T02:21:26.914Z,16.34
2016-08-02T02:22:26.886Z,16.25
2016-08-02T02:23:26.852Z,16.27
2016-08-02T02:24:26.122Z,16.23
2016-08-02T02:25:26.798Z,16.24
2016-08-02T02:26:26.059Z,16.21
2016-08-02T02:27:26.725Z,16.09
2016-08-02T02:28:26.690Z,16.09
2016-08-02T02:29:26.659Z,16.07
2016-08-02T02:30:26.626Z,16
2016-08-02T02:31:26.595Z,15.92
2016-08-02T02:32:25.869Z,15.92
2016-08-02T02:33:26.539Z,15.84
2016-08-02T02:34:26.505Z,15.87
2016-08-02T02:35:25.778Z,15.76
2016-08-02T02:36:25.048Z,15.83
2016-08-02T02:37:25.709Z,15.72
2016-08-02T02:38:25.685Z,15.69
2016-08-02T02:39:26.344Z,15.67
2016-08-02T02:40:25.616Z,15.59
2016-08-02T02:41:26.281Z,15.6
2016-08-02T02:42:26.253Z,15.54
2016-08-02T02:43:25.525Z,15.6
2016-08-02T02:44:24.795Z,15.5
2016-08-02T02:45:26.157Z,15.44
2016-08-02T02:46:25.428Z,15.44
2016-08-02T02:47:26.094Z,15.38
2016-08-02T02:48:25.363Z,15.36
2016-08-02T02:49:25.335Z,15.28
2016-08-02T02:50:25.991Z,15.36
2016-08-02T02:51:25.267Z,15.29
2016-08-02T02:52:25.940Z,15.25
2016-08-02T02:53:25.202Z,15.31
2016-08-02T02:54:25.870Z,15.17
2016-08-02T02:55:25.135Z,15.17
2016-08-02T02:56:25.106Z,15.2
2016-08-02T02:57:25.076Z,15.2
2016-08-02T02:58:25.737Z,15.09
2016-08-02T02:59:25.713Z,15.14
2016-08-02T03:00:25.680Z,15.1
2016-08-02T03:01:25.640Z,15.06
2016-08-02T03:02:25.609Z,15.1
2016-08-02T03:03:25.579Z,15.09
2016-08-02T03:04:25.549Z,15.01
2016-08-02T03:05:24.131Z,15.07
2016-08-02T03:06:24.788Z,14.96
2016-08-02T03:07:24.754Z,14.89
2016-08-02T03:08:25.417Z,14.91
2016-08-02T03:09:25.386Z,14.88
2016-08-02T03:10:25.353Z,14.96
2016-08-02T03:11:25.321Z,14.91
2016-08-02T03:12:25.290Z,14.88
2016-08-02T03:13:25.262Z,14.91
2016-08-02T03:14:25.224Z,14.88
2016-08-02T03:15:24.495Z,14.92
2016-08-02T03:16:25.160Z,14.91
2016-08-02T03:17:25.127Z,14.88
2016-08-02T03:18:25.093Z,14.91
2016-08-02T03:19:25.064Z,14.89
2016-08-02T03:20:24.334Z,14.94
2016-08-02T03:21:24.299Z,14.96
2016-08-02T03:22:24.966Z,14.99
2016-08-02T03:23:24.935Z,14.89
2016-08-02T03:25:24.868Z,14.98
2016-08-02T03:26:24.146Z,14.95
2016-08-02T03:27:24.808Z,14.95
2016-08-02T03:28:24.777Z,14.98
2016-08-02T03:29:24.041Z,15.01
2016-08-02T03:30:24.715Z,15.09
2016-08-02T03:31:24.676Z,15.09
2016-08-02T03:32:24.645Z,15.01
2016-08-02T03:33:24.613Z,15.06
2016-08-02T03:34:23.885Z,15.07
2016-08-02T03:35:24.550Z,15.09
2016-08-02T03:36:23.821Z,15.03
2016-08-02T03:37:24.482Z,15.07
2016-08-02T03:38:24.451Z,15.07
2016-08-02T03:39:23.025Z,15.03
2016-08-02T03:40:23.688Z,14.99
2016-08-02T03:41:23.657Z,15.07
2016-08-02T03:42:24.318Z,14.99
2016-08-02T03:43:24.289Z,15.1
2016-08-02T03:44:24.255Z,15.03
2016-08-02T03:45:23.536Z,15.09
2016-08-02T03:46:23.500Z,15.03
2016-08-02T03:47:23.468Z,15.02
2016-08-02T03:48:24.136Z,15.03
2016-08-02T03:49:24.104Z,15.09
2016-08-02T03:50:24.073Z,15.13
2016-08-02T03:51:22.638Z,15.14
2016-08-02T03:52:23.300Z,15.13
2016-08-02T03:53:23.970Z,15.1
2016-08-02T03:54:22.541Z,15.11
2016-08-02T03:55:23.216Z,15.17
2016-08-02T03:56:23.871Z,15.2
2016-08-02T03:57:23.142Z,15.2
2016-08-02T03:58:23.820Z,15.21
2016-08-02T03:59:23.077Z,15.27
2016-08-02T04:00:23.744Z,15.19
2016-08-02T04:01:23.714Z,15.25
2016-08-02T04:02:23.679Z,15.19
2016-08-02T04:03:22.948Z,15.19
2016-08-02T04:04:22.915Z,15.29
2016-08-02T04:05:23.583Z,15.27
2016-08-02T04:06:22.857Z,15.23
2016-08-02T04:07:23.516Z,15.28
2016-08-02T04:08:22.787Z,15.39
2016-08-02T04:09:22.308Z,15.38
2016-08-02T04:10:23.419Z,15.31
2016-08-02T04:11:23.387Z,15.25
2016-08-02T04:12:23.355Z,15.29
2016-08-02T04:13:22.626Z,15.29
2016-08-02T04:14:23.298Z,15.34
2016-08-02T04:15:23.264Z,15.38
2016-08-02T04:16:23.229Z,15.32
2016-08-02T04:17:21.802Z,15.36
2016-08-02T04:18:22.465Z,15.35
2016-08-02T04:19:23.129Z,15.43
2016-08-02T04:20:23.104Z,15.35
2016-08-02T04:21:22.377Z,15.38
2016-08-02T04:22:23.037Z,15.34
2016-08-02T04:23:23.002Z,15.36
2016-08-02T04:25:21.555Z,15.44
2016-08-02T04:26:22.211Z,15.39
2016-08-02T04:27:21.482Z,15.44
2016-08-02T04:28:22.845Z,15.44
2016-08-02T04:29:22.115Z,15.44
2016-08-02T04:30:22.779Z,15.44
2016-08-02T04:31:22.750Z,15.51
2016-08-02T04:32:22.722Z,15.36
2016-08-02T04:33:22.700Z,15.39
2016-08-02T04:34:22.658Z,15.5
2016-08-02T04:35:22.620Z,15.47
2016-08-02T04:36:21.894Z,15.5
2016-08-02T04:37:22.562Z,15.47
2016-08-02T04:38:22.534Z,15.49
2016-08-02T04:40:22.464Z,15.51
2016-08-02T04:41:22.435Z,15.56
2016-08-02T04:42:22.399Z,15.65
2016-08-02T04:43:21.678Z,15.57
2016-08-02T04:44:22.333Z,15.64
2016-08-02T04:45:22.309Z,15.6
2016-08-02T04:46:22.269Z,15.6
2016-08-02T04:47:22.238Z,15.64
2016-08-02T04:48:21.513Z,15.6
2016-08-02T04:49:22.194Z,15.65
2016-08-02T04:50:21.453Z,15.57
2016-08-02T04:51:22.124Z,15.69
2016-08-02T04:52:22.085Z,15.74
2016-08-02T04:53:22.050Z,15.75
2016-08-02T04:55:21.991Z,15.69
2016-08-02T04:56:21.257Z,15.74
2016-08-02T04:57:21.921Z,15.75
2016-08-02T04:58:21.195Z,15.75
2016-08-02T04:59:21.859Z,15.76
2016-08-02T05:00:21.829Z,15.92
2016-08-02T05:01:21.795Z,15.87
2016-08-02T05:02:21.764Z,15.87
2016-08-02T05:03:21.732Z,15.89
2016-08-02T05:04:20.304Z,15.9
2016-08-02T05:05:21.672Z,15.89
2016-08-02T05:06:20.940Z,15.96
2016-08-02T05:07:20.909Z,16
2016-08-02T05:08:20.876Z,16.04
2016-08-02T05:10:21.524Z,16.07
2016-08-02T05:11:21.478Z,16.14
2016-08-02T05:12:21.453Z,16.05
2016-08-02T05:13:21.418Z,16.07
2016-08-02T05:14:21.386Z,16.12
2016-08-02T05:15:21.354Z,16.2
2016-08-02T05:16:20.623Z,16.2
2016-08-02T05:17:21.288Z,16.17
2016-08-02T05:18:21.259Z,16.24
2016-08-02T05:19:21.245Z,16.23
2016-08-02T05:20:21.192Z,16.2
2016-08-02T05:21:19.765Z,16.23
2016-08-02T05:22:21.125Z,16.2
2016-08-02T05:23:20.409Z,16.31
2016-08-02T05:25:21.036Z,16.28
2016-08-02T05:26:21.002Z,16.3
2016-08-02T05:27:20.275Z,16.28
2016-08-02T05:28:20.947Z,16.34
2016-08-02T05:29:20.911Z,16.28
2016-08-02T05:30:20.878Z,16.35
2016-08-02T05:31:20.164Z,16.39
2016-08-02T05:32:20.118Z,16.43
2016-08-02T05:33:20.782Z,16.39
2016-08-02T05:34:20.756Z,16.42
2016-08-02T05:35:20.724Z,16.39
2016-08-02T05:36:19.999Z,16.35
2016-08-02T05:37:19.976Z,16.33
2016-08-02T05:38:19.930Z,16.41
2016-08-02T05:40:20.563Z,16.46
2016-08-02T05:41:20.541Z,16.45
2016-08-02T05:42:20.503Z,16.43
2016-08-02T05:43:20.470Z,16.5
2016-08-02T05:44:20.444Z,16.5
2016-08-02T05:45:20.407Z,16.52
2016-08-02T05:46:20.374Z,16.61
2016-08-02T05:47:18.953Z,16.64
2016-08-02T05:48:20.318Z,16.64
2016-08-02T05:49:19.594Z,16.7
2016-08-02T05:50:20.262Z,16.7
2016-08-02T05:51:20.222Z,16.71
2016-08-02T05:52:19.499Z,16.75
2016-08-02T05:53:20.158Z,16.75
2016-08-02T05:55:19.399Z,16.67
2016-08-02T05:56:20.066Z,16.76
2016-08-02T05:57:19.336Z,16.79
2016-08-02T05:58:19.999Z,16.79
2016-08-02T05:59:19.271Z,16.89
2016-08-02T06:00:19.939Z,16.79
2016-08-02T06:01:19.916Z,16.85
2016-08-02T06:02:19.876Z,16.82
2016-08-02T06:03:19.843Z,16.94
2016-08-02T06:04:19.815Z,16.89
2016-08-02T06:05:19.784Z,16.89
2016-08-02T06:06:19.753Z,16.97
2016-08-02T06:07:19.025Z,17.12
2016-08-02T06:08:19.691Z,17.11
2016-08-02T06:09:18.964Z,17.16
2016-08-02T06:10:19.627Z,17.23
2016-08-02T06:11:19.604Z,17.22
2016-08-02T06:12:19.565Z,17.34
2016-08-02T06:13:19.540Z,17.41
2016-08-02T06:14:18.810Z,17.38
2016-08-02T06:15:18.782Z,17.36
2016-08-02T06:16:18.755Z,17.41
2016-08-02T06:17:18.725Z,17.46
2016-08-02T06:18:19.395Z,17.48
2016-08-02T06:19:18.655Z,17.63
2016-08-02T06:20:17.932Z,17.66
2016-08-02T06:21:18.597Z,17.79
2016-08-02T06:22:19.270Z,17.82
2016-08-02T06:23:19.234Z,17.97
2016-08-02T06:24:19.206Z,17.96
2016-08-02T06:25:18.484Z,18.07
2016-08-02T06:26:18.454Z,18.18
2016-08-02T06:27:19.110Z,18.21
2016-08-02T06:28:18.382Z,18.18
2016-08-02T06:29:19.050Z,18.2
2016-08-02T06:30:19.013Z,18.27
2016-08-02T06:31:18.293Z,18.39
2016-08-02T06:32:17.564Z,18.36
2016-08-02T06:33:18.933Z,18.41
2016-08-02T06:34:18.898Z,18.45
2016-08-02T06:35:18.868Z,18.39
2016-08-02T06:36:18.141Z,18.58
2016-08-02T06:37:18.805Z,18.55
2016-08-02T06:38:18.772Z,18.55
2016-08-02T06:39:17.349Z,18.52
2016-08-02T06:40:18.717Z,18.54
2016-08-02T06:41:18.001Z,18.63
2016-08-02T06:42:18.653Z,18.54
2016-08-02T06:43:17.931Z,18.58
2016-08-02T06:44:17.900Z,18.62
2016-08-02T06:45:18.563Z,18.58
2016-08-02T06:46:18.541Z,18.58
2016-08-02T06:47:17.816Z,18.66
2016-08-02T06:48:18.484Z,18.72
2016-08-02T06:49:18.443Z,18.7
2016-08-02T06:50:17.720Z,18.8
2016-08-02T06:51:18.392Z,18.81
2016-08-02T06:52:18.355Z,18.82
2016-08-02T06:53:16.935Z,18.82
2016-08-02T06:54:18.296Z,18.85
2016-08-02T06:55:17.572Z,18.82
2016-08-02T06:56:18.235Z,18.9
2016-08-02T06:57:18.211Z,18.9
2016-08-02T06:58:17.484Z,18.94
2016-08-02T06:59:17.451Z,18.99
2016-08-02T07:00:18.117Z,19.07
2016-08-02T07:01:18.088Z,19.06
2016-08-02T07:02:18.064Z,19.18
2016-08-02T07:03:17.337Z,19.33
2016-08-02T07:04:17.309Z,19.59
2016-08-02T07:05:17.969Z,19.83
2016-08-02T07:06:17.257Z,20.17
2016-08-02T07:07:17.916Z,20.5
2016-08-02T07:08:17.190Z,20.98
2016-08-02T07:09:17.157Z,21.47
2016-08-02T07:10:17.130Z,22.03
2016-08-02T07:11:17.795Z,22.36
2016-08-02T07:12:17.069Z,22.7
2016-08-02T07:13:17.052Z,23.12
2016-08-02T07:14:17.711Z,23.54
2016-08-02T07:15:16.992Z,24.02
2016-08-02T07:16:17.664Z,24.3
2016-08-02T07:17:17.633Z,24.46
2016-08-02T07:18:17.604Z,24.71
2016-08-02T07:19:16.881Z,25.1
2016-08-02T07:20:16.860Z,25.36
2016-08-02T07:21:16.831Z,25.52
2016-08-02T07:22:17.498Z,25.65
2016-08-02T07:23:17.472Z,25.77
2016-08-02T07:24:17.447Z,25.9
2016-08-02T07:25:16.729Z,25.98
2016-08-02T07:26:17.413Z,26.12
2016-08-02T07:27:16.679Z,26.13
2016-08-02T07:28:17.345Z,26.25
2016-08-02T07:29:17.320Z,26.51
2016-08-02T07:30:17.293Z,26.67
2016-08-02T07:31:16.574Z,26.72
2016-08-02T07:32:16.551Z,26.97
2016-08-02T07:33:17.228Z,27.17
2016-08-02T07:34:17.205Z,27.44
2016-08-02T07:35:17.173Z,27.6
2016-08-02T07:36:17.149Z,27.9
2016-08-02T07:37:16.446Z,28.04
2016-08-02T07:38:17.102Z,28.31
2016-08-02T07:39:17.078Z,28.33
2016-08-02T07:40:16.371Z,28.34
2016-08-02T07:41:17.040Z,28.34
2016-08-02T07:42:17.007Z,28.56
2016-08-02T07:43:17.007Z,28.58
2016-08-02T07:44:16.963Z,28.54
2016-08-02T07:45:16.943Z,28.71
2016-08-02T07:46:16.223Z,28.54
2016-08-02T07:47:16.197Z,28.25
2016-08-02T07:48:15.480Z,28.07
2016-08-02T07:49:16.849Z,28.14
2016-08-02T07:50:16.834Z,28.31
2016-08-02T07:51:16.803Z,28.8
2016-08-02T07:52:16.092Z,29.06
2016-08-02T07:53:16.060Z,29.65
2016-08-02T07:54:16.035Z,30.15
2016-08-02T07:55:16.709Z,30.84
2016-08-02T07:56:15.992Z,31.26
2016-08-02T07:57:16.667Z,31.57
2016-08-02T07:58:15.959Z,31.51
2016-08-02T07:59:15.229Z,31.39
2016-08-02T08:00:16.619Z,31.17
2016-08-02T08:01:16.581Z,31.1
2016-08-02T08:02:16.558Z,30.91
2016-08-02T08:03:16.540Z,30.7
2016-08-02T08:04:15.814Z,30.76
2016-08-02T08:05:16.492Z,31.13
2016-08-02T08:06:15.775Z,31.76
2016-08-02T08:07:15.757Z,32.5
2016-08-02T08:08:15.733Z,33.47
2016-08-02T08:09:16.409Z,34.15
2016-08-02T08:10:15.693Z,34.88
2016-08-02T08:11:15.670Z,35.28
2016-08-02T08:12:16.347Z,35.44
2016-08-02T08:13:15.631Z,35.56
2016-08-02T08:14:16.313Z,35.55
2016-08-02T08:15:15.587Z,35.6
2016-08-02T08:16:15.571Z,35.5
2016-08-02T08:17:15.549Z,35.22
2016-08-02T08:18:14.831Z,35
2016-08-02T08:19:15.508Z,35.11
2016-08-02T08:20:16.187Z,34.88
2016-08-02T08:21:16.166Z,34.62
2016-08-02T08:22:15.451Z,34.46
2016-08-02T08:23:16.123Z,34.56
2016-08-02T08:24:16.098Z,34.49
2016-08-02T08:25:15.386Z,34.34
2016-08-02T08:26:16.069Z,33.84
2016-08-02T08:27:15.352Z,33.47
2016-08-02T08:28:15.329Z,33.12
2016-08-02T08:29:15.311Z,32.66
2016-08-02T08:30:15.987Z,32.37
2016-08-02T08:31:15.966Z,31.93
2016-08-02T08:32:15.948Z,31.58
2016-08-02T08:33:15.926Z,31.1
2016-08-02T08:34:15.206Z,30.67
2016-08-02T08:35:15.883Z,30.45
2016-08-02T08:36:15.861Z,30.32
2016-08-02T08:37:15.146Z,30.45
2016-08-02T08:38:15.822Z,30.72
2016-08-02T08:39:15.805Z,31.13
2016-08-02T08:40:15.781Z,31.85
2016-08-02T08:41:15.757Z,32.66
2016-08-02T08:42:15.736Z,33.23
2016-08-02T08:43:15.718Z,33.75
2016-08-02T08:44:15.712Z,34.27
2016-08-02T08:45:15.682Z,34.69
2016-08-02T08:46:14.256Z,34.88
2016-08-02T08:47:15.629Z,34.85
2016-08-02T08:48:14.916Z,34.87
2016-08-02T08:49:15.595Z,35.02
2016-08-02T08:50:15.567Z,35.78
2016-08-02T08:51:15.551Z,36.56
2016-08-02T08:52:15.531Z,37.2
2016-08-02T08:53:14.811Z,37.84
2016-08-02T08:54:14.793Z,38.2
2016-08-02T08:55:14.778Z,38.28
2016-08-02T08:56:15.456Z,38.47
2016-08-02T08:57:14.738Z,38.61
2016-08-02T08:58:15.414Z,38.79
2016-08-02T08:59:14.697Z,38.79
2016-08-02T09:00:15.378Z,38.78
2016-08-02T09:01:15.356Z,38.9
2016-08-02T09:02:13.947Z,38.99
2016-08-02T09:03:15.326Z,38.9
2016-08-02T09:04:15.310Z,38.71
2016-08-02T09:05:15.289Z,38.59
2016-08-02T09:06:14.587Z,38.4
2016-08-02T09:07:15.250Z,37.91
2016-08-02T09:08:15.239Z,37.66
2016-08-02T09:09:15.213Z,37.21
2016-08-02T09:11:14.485Z,37.22
2016-08-02T09:12:15.172Z,37.93
2016-08-02T09:13:14.449Z,38.61
2016-08-02T09:14:14.430Z,39.44
2016-08-02T09:15:15.106Z,40.06
2016-08-02T09:16:15.088Z,40.87
2016-08-02T09:17:15.079Z,41.67
2016-08-02T09:18:15.060Z,42.23
2016-08-02T09:19:15.038Z,42.81
2016-08-02T09:20:15.023Z,43.27
2016-08-02T09:21:14.309Z,43.79
2016-08-02T09:22:14.989Z,44.02
2016-08-02T09:23:14.973Z,44.14
2016-08-02T09:24:14.267Z,44.19
2016-08-02T09:26:14.939Z,43.22
2016-08-02T09:27:14.912Z,43.28
2016-08-02T09:28:14.201Z,43.5
2016-08-02T09:29:14.185Z,43.78
2016-08-02T09:30:14.875Z,44.18
2016-08-02T09:31:14.153Z,44.6
2016-08-02T09:32:14.839Z,44.88
2016-08-02T09:33:14.819Z,45.12
2016-08-02T09:34:14.805Z,45.48
2016-08-02T09:35:14.794Z,45.55
2016-08-02T09:36:14.780Z,45.26
2016-08-02T09:37:14.773Z,44.94
2016-08-02T09:38:14.059Z,44.26
2016-08-02T09:39:14.764Z,43.81
2016-08-02T09:40:14.034Z,43.31
2016-08-02T09:41:14.713Z,43.08
2016-08-02T09:42:14.703Z,43.07
2016-08-02T09:43:14.689Z,42.99
2016-08-02T09:44:13.977Z,42.95
2016-08-02T09:45:14.662Z,42.81
2016-08-02T09:46:14.646Z,42.71
2016-08-02T09:47:13.940Z,42.33
2016-08-02T09:48:14.634Z,41.93
2016-08-02T09:49:14.607Z,41.57
2016-08-02T09:50:14.587Z,41.67
2016-08-02T09:51:14.574Z,42.01
2016-08-02T09:52:13.865Z,42.37
2016-08-02T09:53:14.547Z,42.81
2016-08-02T09:54:14.533Z,43.23
2016-08-02T09:55:14.517Z,43.53
2016-08-02T09:56:13.815Z,43.68
2016-08-02T09:57:14.495Z,43.69
2016-08-02T09:58:14.476Z,43.69
2016-08-02T09:59:14.460Z,43.79
2016-08-02T10:00:14.441Z,43.78
2016-08-02T10:01:14.433Z,43.9
2016-08-02T10:02:14.426Z,44.06
2016-08-02T10:03:13.712Z,44.26
2016-08-02T10:04:14.394Z,44.53
2016-08-02T10:05:13.683Z,44.9
2016-08-02T10:06:14.363Z,44.97
2016-08-02T10:07:14.352Z,44.86
2016-08-02T10:08:14.342Z,44.59
2016-08-02T10:09:13.624Z,43.98
2016-08-02T10:10:14.307Z,43.37
2016-08-02T10:11:14.312Z,42.74
2016-08-02T10:12:14.283Z,42.33
2016-08-02T10:13:14.266Z,42.17
2016-08-02T10:14:13.560Z,42.35
2016-08-02T10:15:13.542Z,42.21
2016-08-02T10:16:13.527Z,41.98
2016-08-02T10:17:14.206Z,41.47
2016-08-02T10:18:14.192Z,40.98
2016-08-02T10:19:14.186Z,40.46
2016-08-02T10:20:13.466Z,39.96
2016-08-02T10:21:14.147Z,39.96
2016-08-02T10:22:13.433Z,40.51
2016-08-02T10:23:14.120Z,40.88
2016-08-02T10:24:14.115Z,41.29
2016-08-02T10:25:14.093Z,41.42
2016-08-02T10:26:14.072Z,41.82
2016-08-02T10:27:14.055Z,41.87
2016-08-02T10:28:14.052Z,41.82
2016-08-02T10:29:14.028Z,41.45
2016-08-02T10:30:12.613Z,41.49
2016-08-02T10:31:13.991Z,41.6
2016-08-02T10:32:13.975Z,41.8
2016-08-02T10:33:13.959Z,41.7
2016-08-02T10:34:13.945Z,41.42
2016-08-02T10:35:13.232Z,41.04
2016-08-02T10:36:13.918Z,40.54
2016-08-02T10:37:13.199Z,40.32
2016-08-02T10:38:13.885Z,40.39
2016-08-02T10:39:13.171Z,40.73
2016-08-02T10:40:13.849Z,41.07
2016-08-02T10:41:13.142Z,41.32
2016-08-02T10:42:13.821Z,41.42
2016-08-02T10:43:13.795Z,41.39
2016-08-02T10:44:13.091Z,41.51
2016-08-02T10:45:13.768Z,41.7
2016-08-02T10:46:13.054Z,41.82
2016-08-02T10:47:13.756Z,41.96
2016-08-02T10:48:13.722Z,42.05
2016-08-02T10:49:13.010Z,42.21
2016-08-02T10:50:13.686Z,42.49
2016-08-02T10:51:13.676Z,42.8
2016-08-02T10:52:13.656Z,42.92
2016-08-02T10:53:12.949Z,43.11
2016-08-02T10:54:13.833Z,43.19
2016-08-02T10:55:13.612Z,43.27
2016-08-02T10:56:13.601Z,43.37
2016-08-02T10:57:13.583Z,43.35
2016-08-02T10:58:13.576Z,43.45
2016-08-02T10:59:12.866Z,43.34
2016-08-02T11:00:12.850Z,43.52
2016-08-02T11:01:13.531Z,43.47
2016-08-02T11:02:13.514Z,43.57
2016-08-02T11:03:12.807Z,43.49
2016-08-02T11:04:13.484Z,43.34
2016-08-02T11:05:13.479Z,43.1
2016-08-02T11:06:12.758Z,42.8
2016-08-02T11:07:12.743Z,42.35
2016-08-02T11:08:13.424Z,41.69
2016-08-02T11:09:13.409Z,41.18
2016-08-02T11:10:12.696Z,40.43
2016-08-02T11:11:12.681Z,39.92
2016-08-02T11:12:13.364Z,39.64
2016-08-02T11:13:13.343Z,39.35
2016-08-02T11:14:13.333Z,39.1
2016-08-02T11:15:13.310Z,38.76
2016-08-02T11:16:12.599Z,38.44
2016-08-02T11:17:13.279Z,38.03
2016-08-02T11:18:12.564Z,37.86
2016-08-02T11:19:12.549Z,37.6
2016-08-02T11:20:13.225Z,37.44
2016-08-02T11:21:13.217Z,37.32
2016-08-02T11:22:12.493Z,37.15
2016-08-02T11:23:13.166Z,36.94
2016-08-02T11:24:13.252Z,36.51
2016-08-02T11:25:13.132Z,36.19
2016-08-02T11:26:13.113Z,35.94
2016-08-02T11:27:13.096Z,35.75
2016-08-02T11:28:13.076Z,35.62
2016-08-02T11:29:13.070Z,35.45
2016-08-02T11:30:13.039Z,35.25
2016-08-02T11:31:12.320Z,35.16
2016-08-02T11:32:12.998Z,35.02
2016-08-02T11:33:12.987Z,34.92
2016-08-02T11:34:12.963Z,34.69
2016-08-02T11:35:12.949Z,34.47
2016-08-02T11:36:12.931Z,34.22
2016-08-02T11:37:12.908Z,34.08
2016-08-02T11:38:12.884Z,33.86
2016-08-02T11:39:12.864Z,33.57
2016-08-02T11:40:12.845Z,33.38
2016-08-02T11:41:12.128Z,33.26
2016-08-02T11:42:12.802Z,32.87
2016-08-02T11:43:12.093Z,32.74
2016-08-02T11:44:12.767Z,32.52
2016-08-02T11:45:12.042Z,32.38
2016-08-02T11:46:12.031Z,32.3
2016-08-02T11:47:12.001Z,32.18
2016-08-02T11:48:12.676Z,32.04
2016-08-02T11:49:12.656Z,32.08
2016-08-02T11:50:12.636Z,31.96
2016-08-02T11:51:12.617Z,32
2016-08-02T11:52:12.595Z,31.8
2016-08-02T11:53:11.876Z,31.68
2016-08-02T11:54:11.859Z,31.78
2016-08-02T11:55:12.527Z,31.68
2016-08-02T11:56:12.508Z,31.7
2016-08-02T11:57:12.492Z,31.61
2016-08-02T11:58:11.804Z,31.61
2016-08-02T11:59:12.445Z,31.61
2016-08-02T12:00:12.423Z,31.53
2016-08-02T12:01:11.706Z,31.57
2016-08-02T12:02:11.680Z,31.43
2016-08-02T12:03:12.354Z,31.38
2016-08-02T12:04:11.636Z,31.38
2016-08-02T12:05:11.621Z,31.36
2016-08-02T12:06:11.592Z,31.25
2016-08-02T12:07:12.271Z,31.31
2016-08-02T12:08:11.550Z,31.26
2016-08-02T12:09:12.221Z,31.14
2016-08-02T12:10:11.503Z,31.02
2016-08-02T12:11:12.182Z,30.97
2016-08-02T12:12:12.157Z,30.77
2016-08-02T12:13:12.132Z,30.75
2016-08-02T12:14:11.415Z,30.76
2016-08-02T12:15:12.098Z,30.69
2016-08-02T12:16:12.068Z,30.6
2016-08-02T12:17:11.351Z,30.57
2016-08-02T12:18:11.323Z,30.54
2016-08-02T12:19:12.000Z,30.45
2016-08-02T12:20:11.974Z,30.46
2016-08-02T12:21:11.255Z,30.27
2016-08-02T12:22:11.932Z,30.16
2016-08-02T12:23:11.910Z,30.22
2016-08-02T12:24:11.887Z,30.1
2016-08-02T12:25:11.875Z,30.13
2016-08-02T12:26:11.836Z,30.07
2016-08-02T12:27:11.818Z,30
2016-08-02T12:28:11.807Z,29.9
2016-08-02T12:29:11.076Z,29.83
2016-08-02T12:30:11.066Z,29.8
2016-08-02T12:31:11.727Z,29.76
2016-08-02T12:32:11.017Z,29.67
2016-08-02T12:33:11.682Z,29.73
2016-08-02T12:34:11.658Z,29.68
2016-08-02T12:35:10.251Z,29.65
2016-08-02T12:36:10.219Z,29.55
2016-08-02T12:37:11.588Z,29.57
2016-08-02T12:38:11.565Z,29.58
2016-08-02T12:39:10.840Z,29.61
2016-08-02T12:40:11.519Z,29.55
2016-08-02T12:41:10.797Z,29.45
2016-08-02T12:42:10.775Z,29.45
2016-08-02T12:43:10.758Z,29.42
2016-08-02T12:44:11.422Z,29.43
2016-08-02T12:45:10.703Z,29.42
2016-08-02T12:46:10.680Z,29.33
2016-08-02T12:47:10.655Z,29.31
2016-08-02T12:48:10.645Z,29.18
2016-08-02T12:49:11.309Z,29.11
2016-08-02T12:50:11.289Z,29.05
2016-08-02T12:51:10.563Z,29.05
2016-08-02T12:52:10.551Z,29.02
2016-08-02T12:53:11.212Z,29.09
2016-08-02T12:54:11.194Z,29.24
2016-08-02T12:55:11.178Z,29.27
2016-08-02T12:56:10.451Z,29.41
2016-08-02T12:57:11.131Z,29.33
2016-08-02T12:58:11.097Z,29.31
2016-08-02T12:59:11.074Z,29.3
2016-08-02T13:00:11.050Z,29.28
2016-08-02T13:01:10.329Z,29.3
2016-08-02T13:02:11.006Z,29.19
2016-08-02T13:03:10.977Z,29.19
2016-08-02T13:04:10.955Z,29.21
2016-08-02T13:05:10.236Z,29.23
2016-08-02T13:06:10.911Z,29.19